Time;durP1;ratioP1;P1;durP2;ratioP2;P2;SDS_P1;SDS_P2;PMS_P1;PMS_P2;Temp;Humidity;BMP_temperature;BMP_pressure;BME280_temperature;BME280_humidity;BME280_pressure;Samples;Min_cycle;Max_cycle;Signal;HPM_P1;HPM_P2
2023/09/12 00:00:30;;;;;;;6.07;3.58;;;;;;;;;;5026051;28;20415;-64
2023/09/12 00:02:57;;;;;;;4.75;3.55;;;;;;;;;;5024735;28;20485;-63
2023/09/12 00:05:24;;;;;;;4.47;3.60;;;;;;;;;;5022759;28;20415;-63
2023/09/12 00:07:53;;;;;;;5.25;3.85;;;;;;;;;;5023438;28;20412;-63
2023/09/12 00:10:21;;;;;;;4.28;3.50;;;;;;;;;;5025646;28;20490;-63
2023/09/12 00:12:48;;;;;;;4.07;3.63;;;;;;;;;;5021283;28;20887;-63
2023/09/12 00:15:15;;;;;;;4.47;3.63;;;;;;;;;;5025473;28;20502;-64
2023/09/12 00:17:42;;;;;;;5.45;4.00;;;;;;;;;;5022274;28;20945;-63
2023/09/12 00:20:11;;;;;;;4.00;3.60;;;;;;;;;;5025190;28;20418;-63
2023/09/12 00:22:38;;;;;;;5.78;4.18;;;;;;;;;;5025483;28;20779;-63
2023/09/12 00:25:05;;;;;;;5.53;4.03;;;;;;;;;;5023753;28;20417;-63
2023/09/12 00:27:33;;;;;;;4.95;4.22;;;;;;;;;;5022479;28;20830;-63
2023/09/12 00:30:00;;;;;;;6.43;4.57;;;;;;;;;;5028811;28;20415;-63
2023/09/12 00:32:27;;;;;;;5.65;4.50;;;;;;;;;;5025916;28;20432;-63
2023/09/12 00:34:54;;;;;;;5.50;4.90;;;;;;;;;;5030469;28;20818;-63
2023/09/12 00:37:21;;;;;;;5.10;4.57;;;;;;;;;;5026225;28;20419;-63
2023/09/12 00:39:48;;;;;;;6.45;4.72;;;;;;;;;;5029883;28;20478;-63
2023/09/12 00:42:15;;;;;;;6.35;4.72;;;;;;;;;;5025302;28;20610;-63
2023/09/12 00:44:43;;;;;;;4.88;4.35;;;;;;;;;;5027394;28;20432;-63
2023/09/12 00:47:12;;;;;;;6.70;4.53;;;;;;;;;;5026837;28;20893;-63
2023/09/12 00:49:39;;;;;;;6.28;4.70;;;;;;;;;;5021987;28;20411;-64
2023/09/12 00:52:07;;;;;;;5.70;4.75;;;;;;;;;;5026808;28;20415;-64
2023/09/12 00:54:34;;;;;;;7.07;5.03;;;;;;;;;;5024922;28;20479;-64
2023/09/12 00:57:01;;;;;;;10.93;5.25;;;;;;;;;;5020708;28;20412;-64
2023/09/12 00:59:29;;;;;;;9.05;6.10;;;;;;;;;;5023578;28;20780;-64
2023/09/12 01:01:57;;;;;;;7.55;5.90;;;;;;;;;;5026739;28;20419;-65
2023/09/12 01:04:24;;;;;;;7.35;6.50;;;;;;;;;;5029713;28;20426;-65
2023/09/12 01:06:52;;;;;;;8.02;6.70;;;;;;;;;;5024955;28;20415;-64
2023/09/12 01:09:19;;;;;;;8.23;7.13;;;;;;;;;;5030298;28;20468;-65
2023/09/12 01:11:46;;;;;;;7.97;7.07;;;;;;;;;;5027604;28;20415;-65
2023/09/12 01:14:13;;;;;;;8.68;7.72;;;;;;;;;;5033321;28;20411;-65
2023/09/12 01:16:40;;;;;;;8.75;7.38;;;;;;;;;;5022522;28;20417;-64
2023/09/12 01:19:09;;;;;;;10.73;8.05;;;;;;;;;;5030133;28;20828;-65
2023/09/12 01:21:41;;;;;;;10.98;8.35;;;;;;;;;;5015236;28;20428;-64
2023/09/12 01:24:17;;;;;;;9.25;8.15;;;;;;;;;;5016874;28;20526;-64
2023/09/12 01:26:47;;;;;;;10.68;7.63;;;;;;;;;;5018271;28;20418;-64
2023/09/12 01:29:17;;;;;;;9.70;7.97;;;;;;;;;;5027444;28;20415;-64
2023/09/12 01:31:44;;;;;;;9.93;8.40;;;;;;;;;;5023676;28;20424;-64
2023/09/12 01:34:12;;;;;;;10.77;8.77;;;;;;;;;;5019969;28;20471;-65
2023/09/12 01:36:39;;;;;;;10.85;8.50;;;;;;;;;;5021565;28;20473;-65
2023/09/12 01:39:06;;;;;;;12.77;10.35;;;;;;;;;;5029066;28;20428;-65
2023/09/12 01:41:34;;;;;;;12.68;9.88;;;;;;;;;;5026408;28;20473;-64
2023/09/12 01:44:02;;;;;;;13.07;9.83;;;;;;;;;;5027570;28;20828;-65
2023/09/12 01:46:31;;;;;;;14.60;11.88;;;;;;;;;;5025117;28;20414;-65
2023/09/12 01:48:59;;;;;;;14.00;10.73;;;;;;;;;;5026826;28;20473;-64
2023/09/12 01:51:26;;;;;;;12.20;9.85;;;;;;;;;;5028184;28;20419;-64
2023/09/12 01:53:54;;;;;;;12.80;9.30;;;;;;;;;;5025910;28;20984;-66
2023/09/12 01:56:21;;;;;;;13.23;9.68;;;;;;;;;;5020566;28;20414;-65
2023/09/12 01:58:48;;;;;;;13.75;10.38;;;;;;;;;;5022929;28;20420;-64
2023/09/12 02:01:15;;;;;;;11.77;9.95;;;;;;;;;;5027808;28;20529;-64
2023/09/12 02:03:44;;;;;;;12.43;10.07;;;;;;;;;;5023830;28;20915;-65
2023/09/12 02:06:11;;;;;;;13.07;9.50;;;;;;;;;;5027421;28;20411;-64
2023/09/12 02:08:37;;;;;;;13.77;9.77;;;;;;;;;;5023665;28;20455;-64
2023/09/12 02:11:04;;;;;;;12.68;10.13;;;;;;;;;;5020813;28;20813;-64
2023/09/12 02:13:31;;;;;;;15.05;12.50;;;;;;;;;;5009387;28;20415;-64
2023/09/12 02:16:02;;;;;;;15.88;12.95;;;;;;;;;;5015881;28;20479;-65
2023/09/12 02:18:29;;;;;;;17.90;13.20;;;;;;;;;;5022310;28;20421;-65
2023/09/12 02:20:59;;;;;;;16.70;13.85;;;;;;;;;;5022561;28;20898;-65
2023/09/12 02:23:26;;;;;;;16.23;13.07;;;;;;;;;;5020011;28;20498;-65
2023/09/12 02:25:53;;;;;;;18.55;14.18;;;;;;;;;;5016988;28;20420;-65
2023/09/12 02:28:20;;;;;;;17.55;14.50;;;;;;;;;;5023117;28;20807;-64
2023/09/12 02:30:47;;;;;;;18.08;14.25;;;;;;;;;;5026906;28;20424;-65
2023/09/12 02:33:14;;;;;;;16.08;14.00;;;;;;;;;;5024225;28;20411;-65
2023/09/12 02:35:41;;;;;;;17.48;14.93;;;;;;;;;;5025713;28;20480;-65
2023/09/12 02:38:10;;;;;;;20.07;14.83;;;;;;;;;;5024722;28;20423;-64
2023/09/12 02:40:37;;;;;;;20.00;15.93;;;;;;;;;;5025395;28;20469;-65
2023/09/12 02:43:05;;;;;;;20.98;15.90;;;;;;;;;;5022235;28;20469;-64
2023/09/12 02:45:32;;;;;;;18.63;14.00;;;;;;;;;;5020541;28;20439;-64
2023/09/12 02:47:59;;;;;;;14.57;12.37;;;;;;;;;;5024197;28;20465;-64
2023/09/12 02:50:26;;;;;;;17.13;12.98;;;;;;;;;;5027720;28;20423;-65
2023/09/12 02:52:53;;;;;;;16.65;13.73;;;;;;;;;;5022944;28;20413;-64
2023/09/12 02:55:21;;;;;;;20.67;14.40;;;;;;;;;;5023649;28;20469;-64
2023/09/12 02:57:48;;;;;;;21.13;14.95;;;;;;;;;;5020828;28;20467;-64
2023/09/12 03:00:15;;;;;;;20.23;15.23;;;;;;;;;;5028029;28;20462;-64
2023/09/12 03:02:42;;;;;;;19.33;15.18;;;;;;;;;;5020970;28;20412;-65
2023/09/12 03:05:09;;;;;;;16.77;14.18;;;;;;;;;;5027328;28;21212;-64
2023/09/12 03:07:36;;;;;;;15.85;13.80;;;;;;;;;;5023986;28;20840;-64
2023/09/12 03:10:04;;;;;;;18.67;14.35;;;;;;;;;;5027062;28;20419;-64
2023/09/12 03:12:32;;;;;;;17.33;13.43;;;;;;;;;;5024522;28;20981;-64
2023/09/12 03:14:59;;;;;;;18.75;14.00;;;;;;;;;;5026017;28;20460;-67
2023/09/12 03:17:26;;;;;;;17.83;15.30;;;;;;;;;;5027343;28;20465;-64
2023/09/12 03:19:53;;;;;;;18.67;15.10;;;;;;;;;;5025782;28;20892;-65
2023/09/12 03:22:20;;;;;;;20.23;14.02;;;;;;;;;;5024014;28;20422;-65
2023/09/12 03:24:47;;;;;;;22.52;15.18;;;;;;;;;;5021461;28;20428;-65
2023/09/12 03:27:14;;;;;;;18.35;15.50;;;;;;;;;;5020475;28;20823;-64
2023/09/12 03:29:42;;;;;;;17.60;15.20;;;;;;;;;;5024134;28;20417;-64
2023/09/12 03:32:09;;;;;;;18.20;15.05;;;;;;;;;;5026001;28;20415;-63
2023/09/12 03:34:36;;;;;;;17.58;14.20;;;;;;;;;;5024264;28;20800;-64
2023/09/12 03:37:04;;;;;;;17.90;13.80;;;;;;;;;;5026251;28;20502;-64
2023/09/12 03:39:31;;;;;;;20.13;14.90;;;;;;;;;;5029836;28;20919;-65
2023/09/12 03:41:58;;;;;;;20.60;15.43;;;;;;;;;;5025869;28;20547;-65
2023/09/12 03:44:25;;;;;;;19.13;15.68;;;;;;;;;;5022396;28;20431;-64
2023/09/12 03:46:53;;;;;;;22.02;15.95;;;;;;;;;;5023467;28;20420;-64
2023/09/12 03:49:20;;;;;;;19.75;15.57;;;;;;;;;;5025067;28;20419;-64
2023/09/12 03:51:47;;;;;;;22.25;15.77;;;;;;;;;;5022557;28;20491;-64
2023/09/12 03:54:14;;;;;;;19.42;15.00;;;;;;;;;;5023722;28;20469;-64
2023/09/12 03:56:41;;;;;;;19.58;14.35;;;;;;;;;;5017670;28;20830;-64
2023/09/12 03:59:08;;;;;;;19.67;15.20;;;;;;;;;;5022794;28;20411;-64
2023/09/12 04:01:36;;;;;;;17.80;14.53;;;;;;;;;;5025018;28;20469;-64
2023/09/12 04:04:04;;;;;;;21.20;15.32;;;;;;;;;;5024000;28;20426;-64
2023/09/12 04:06:31;;;;;;;20.93;15.53;;;;;;;;;;5025154;28;20450;-64
2023/09/12 04:08:58;;;;;;;18.95;15.20;;;;;;;;;;5023300;28;20412;-64
2023/09/12 04:11:25;;;;;;;16.80;14.00;;;;;;;;;;5025363;28;20414;-64
2023/09/12 04:13:52;;;;;;;18.52;14.77;;;;;;;;;;5024045;28;20895;-64
2023/09/12 04:16:19;;;;;;;18.25;14.95;;;;;;;;;;5025440;28;20469;-64
2023/09/12 04:18:46;;;;;;;20.38;15.25;;;;;;;;;;5021742;28;20417;-64
2023/09/12 04:21:15;;;;;;;19.42;15.05;;;;;;;;;;5024963;28;20419;-64
2023/09/12 04:23:42;;;;;;;18.58;14.25;;;;;;;;;;5023203;28;20416;-64
2023/09/12 04:26:09;;;;;;;16.85;13.15;;;;;;;;;;5013596;28;20938;-64
2023/09/12 04:28:36;;;;;;;17.63;13.30;;;;;;;;;;5020679;28;20467;-64
2023/09/12 04:31:03;;;;;;;18.88;14.13;;;;;;;;;;5026815;28;20529;-64
2023/09/12 04:33:30;;;;;;;16.65;14.02;;;;;;;;;;5021428;28;20419;-64
2023/09/12 04:35:59;;;;;;;16.33;13.50;;;;;;;;;;5018996;28;20428;-64
2023/09/12 04:38:27;;;;;;;19.00;13.65;;;;;;;;;;5020254;28;20502;-64
2023/09/12 04:40:55;;;;;;;19.13;13.00;;;;;;;;;;5025148;28;20764;-64
2023/09/12 04:43:22;;;;;;;18.27;12.80;;;;;;;;;;5021800;28;20418;-64
2023/09/12 04:45:49;;;;;;;19.27;13.07;;;;;;;;;;5024150;28;20902;-64
2023/09/12 04:48:16;;;;;;;19.57;12.60;;;;;;;;;;5023233;28;20506;-64
2023/09/12 04:50:43;;;;;;;16.40;12.00;;;;;;;;;;5024718;28;20421;-64
2023/09/12 04:53:10;;;;;;;15.90;11.00;;;;;;;;;;5022760;28;20989;-64
2023/09/12 04:55:38;;;;;;;15.18;11.27;;;;;;;;;;5019671;28;20465;-64
2023/09/12 04:58:06;;;;;;;15.27;11.45;;;;;;;;;;5021049;28;20414;-64
2023/09/12 05:00:33;;;;;;;12.93;10.48;;;;;;;;;;5019359;28;20415;-64
2023/09/12 05:03:00;;;;;;;13.80;10.27;;;;;;;;;;5021300;28;20414;-64
2023/09/12 05:05:27;;;;;;;12.13;10.23;;;;;;;;;;5025591;28;20430;-64
2023/09/12 05:07:54;;;;;;;12.45;10.13;;;;;;;;;;5021216;28;20797;-64
2023/09/12 05:10:21;;;;;;;13.03;9.83;;;;;;;;;;5030267;28;20426;-64
2023/09/12 05:12:49;;;;;;;13.63;9.68;;;;;;;;;;5023407;28;20467;-64
2023/09/12 05:15:16;;;;;;;14.17;9.83;;;;;;;;;;5029728;28;20759;-64
2023/09/12 05:17:43;;;;;;;11.38;8.90;;;;;;;;;;5025518;28;20450;-64
2023/09/12 05:20:11;;;;;;;11.10;9.13;;;;;;;;;;5026622;28;20500;-64
2023/09/12 05:22:38;;;;;;;14.27;9.23;;;;;;;;;;5026003;28;20419;-64
2023/09/12 05:25:05;;;;;;;11.50;8.65;;;;;;;;;;5023815;28;20949;-64
2023/09/12 05:27:32;;;;;;;20.08;9.98;;;;;;;;;;5022331;28;20415;-65
2023/09/12 05:30:00;;;;;;;13.90;8.68;;;;;;;;;;5026970;28;20479;-65
2023/09/12 05:32:27;;;;;;;13.70;9.55;;;;;;;;;;5022595;28;20423;-65
2023/09/12 05:34:54;;;;;;;16.52;10.70;;;;;;;;;;5021514;28;20798;-65
2023/09/12 05:37:21;;;;;;;19.23;11.65;;;;;;;;;;5028413;28;20517;-65
2023/09/12 05:39:48;;;;;;;16.88;12.52;;;;;;;;;;5025979;28;20487;-66
2023/09/12 05:42:20;;;;;;;17.55;12.38;;;;;;;;;;5025305;28;20402;-66
2023/09/12 05:44:47;;;;;;;13.82;11.68;;;;;;;;;;5025529;28;20469;-66
2023/09/12 05:47:15;;;;;;;17.58;14.30;;;;;;;;;;5016987;28;20410;-66
2023/09/12 05:49:42;;;;;;;17.63;13.20;;;;;;;;;;5025126;28;20464;-66
2023/09/12 05:52:09;;;;;;;16.80;13.27;;;;;;;;;;5027573;28;20418;-66
2023/09/12 05:54:36;;;;;;;16.77;13.35;;;;;;;;;;5023495;28;20415;-66
2023/09/12 05:57:04;;;;;;;20.52;13.25;;;;;;;;;;5021004;28;20420;-66
2023/09/12 05:59:31;;;;;;;17.80;13.30;;;;;;;;;;5029755;28;20969;-67
2023/09/12 06:01:58;;;;;;;19.65;15.23;;;;;;;;;;5033287;28;20415;-65
2023/09/12 06:04:26;;;;;;;18.42;14.35;;;;;;;;;;5027775;28;20860;-62
2023/09/12 06:06:53;;;;;;;18.65;13.75;;;;;;;;;;5030042;28;20421;-63
2023/09/12 06:09:20;;;;;;;17.58;13.82;;;;;;;;;;5028175;28;20464;-63
2023/09/12 06:11:47;;;;;;;18.33;14.10;;;;;;;;;;5029408;28;20908;-62
2023/09/12 06:14:14;;;;;;;17.55;13.82;;;;;;;;;;5027019;28;20425;-61
2023/09/12 06:16:41;;;;;;;17.92;13.43;;;;;;;;;;5022891;28;20407;-61
2023/09/12 06:19:08;;;;;;;17.52;13.95;;;;;;;;;;5025621;28;20426;-61
2023/09/12 06:21:36;;;;;;;15.98;14.23;;;;;;;;;;5026394;28;20422;-61
2023/09/12 06:24:10;;;;;;;15.33;13.67;;;;;;;;;;5024578;28;20408;-61
2023/09/12 06:26:37;;;;;;;18.30;14.55;;;;;;;;;;5020202;28;20521;-61
2023/09/12 06:29:05;;;;;;;16.98;14.35;;;;;;;;;;5022697;28;20947;-61
2023/09/12 06:31:31;;;;;;;17.52;14.65;;;;;;;;;;5009115;28;20433;-61
2023/09/12 06:33:59;;;;;;;16.20;14.00;;;;;;;;;;5017215;28;20502;-61
2023/09/12 06:36:26;;;;;;;20.63;15.03;;;;;;;;;;5012722;28;20447;-61
2023/09/12 06:38:54;;;;;;;19.25;15.38;;;;;;;;;;5018830;28;20504;-61
2023/09/12 06:41:21;;;;;;;20.58;15.90;;;;;;;;;;5015229;28;20421;-62
2023/09/12 06:43:48;;;;;;;22.30;17.80;;;;;;;;;;5020993;28;20937;-62
2023/09/12 06:46:17;;;;;;;25.02;19.83;;;;;;;;;;5015364;28;20482;-62
2023/09/12 06:48:45;;;;;;;27.13;18.73;;;;;;;;;;5022332;28;20505;-62
2023/09/12 06:51:12;;;;;;;16.95;14.23;;;;;;;;;;5015037;28;20512;-62
2023/09/12 06:53:39;;;;;;;13.75;11.50;;;;;;;;;;5019950;28;20419;-62
2023/09/12 06:56:08;;;;;;;15.60;12.43;;;;;;;;;;5016642;28;20416;-62
2023/09/12 06:58:35;;;;;;;17.15;14.07;;;;;;;;;;5019469;28;20473;-62
2023/09/12 07:01:05;;;;;;;26.93;17.57;;;;;;;;;;5020980;28;20856;-61
2023/09/12 07:03:32;;;;;;;29.85;19.52;;;;;;;;;;5023660;28;20419;-61
2023/09/12 07:05:59;;;;;;;22.70;17.23;;;;;;;;;;5025348;28;20503;-61
2023/09/12 07:08:27;;;;;;;29.35;18.23;;;;;;;;;;5026347;28;20415;-65
2023/09/12 07:10:54;;;;;;;25.20;16.67;;;;;;;;;;5027358;28;20411;-68
2023/09/12 07:13:23;;;;;;;24.87;17.87;;;;;;;;;;5026404;28;21102;-65
2023/09/12 07:15:50;;;;;;;25.65;18.05;;;;;;;;;;5026541;28;20760;-65
2023/09/12 07:18:18;;;;;;;24.35;18.58;;;;;;;;;;5023324;28;20419;-64
2023/09/12 07:20:45;;;;;;;28.35;19.90;;;;;;;;;;5026793;28;20505;-63
2023/09/12 07:23:12;;;;;;;26.67;19.47;;;;;;;;;;5030167;28;20422;-63
2023/09/12 07:25:40;;;;;;;28.58;20.08;;;;;;;;;;5016979;28;20433;-63
2023/09/12 07:28:07;;;;;;;23.07;17.80;;;;;;;;;;5019137;28;20424;-64
2023/09/12 07:30:36;;;;;;;20.75;17.67;;;;;;;;;;5019213;28;20403;-64
2023/09/12 07:33:04;;;;;;;21.70;17.13;;;;;;;;;;5018707;28;20420;-64
2023/09/12 07:35:31;;;;;;;23.85;16.42;;;;;;;;;;5018798;28;20420;-65
2023/09/12 07:37:58;;;;;;;16.88;13.75;;;;;;;;;;5016226;28;20427;-62
2023/09/12 07:40:25;;;;;;;17.95;13.82;;;;;;;;;;5017389;28;20411;-62
2023/09/12 07:42:52;;;;;;;15.20;12.53;;;;;;;;;;5021307;28;20415;-63
2023/09/12 07:45:20;;;;;;;12.05;9.60;;;;;;;;;;5027460;28;20489;-64
2023/09/12 07:47:48;;;;;;;12.52;8.80;;;;;;;;;;5020727;28;20422;-64
2023/09/12 07:50:15;;;;;;;12.63;9.07;;;;;;;;;;5020034;28;20415;-64
2023/09/12 07:52:42;;;;;;;9.93;8.63;;;;;;;;;;5024743;28;20418;-64
2023/09/12 07:55:10;;;;;;;11.13;7.70;;;;;;;;;;5023253;28;20876;-65
2023/09/12 07:57:37;;;;;;;12.68;8.57;;;;;;;;;;5018955;28;20410;-64
2023/09/12 08:00:10;;;;;;;11.83;8.90;;;;;;;;;;5023451;28;20416;-63
2023/09/12 08:02:37;;;;;;;11.02;9.38;;;;;;;;;;5024011;28;20414;-63
2023/09/12 08:05:06;;;;;;;11.77;9.38;;;;;;;;;;5025258;28;20411;-64
2023/09/12 08:07:33;;;;;;;14.95;10.10;;;;;;;;;;5024396;28;20411;-63
2023/09/12 08:10:00;;;;;;;12.32;9.48;;;;;;;;;;5021251;28;20412;-63
2023/09/12 08:12:28;;;;;;;13.55;10.57;;;;;;;;;;5026857;28;20411;-63
2023/09/12 08:14:55;;;;;;;12.77;10.77;;;;;;;;;;5015188;28;20424;-63
2023/09/12 08:17:23;;;;;;;14.70;10.50;;;;;;;;;;5019582;28;20409;-64
2023/09/12 08:19:50;;;;;;;13.48;11.07;;;;;;;;;;5020178;28;20413;-63
2023/09/12 08:22:19;;;;;;;13.38;11.82;;;;;;;;;;5020894;28;20809;-63
2023/09/12 08:24:46;;;;;;;13.25;11.68;;;;;;;;;;5012386;28;20516;-63
2023/09/12 08:27:13;;;;;;;13.02;11.43;;;;;;;;;;5018134;28;20447;-63
2023/09/12 08:29:41;;;;;;;11.88;10.52;;;;;;;;;;5018898;28;20417;-63
2023/09/12 08:32:08;;;;;;;12.07;10.15;;;;;;;;;;5025239;28;20420;-64
2023/09/12 08:34:35;;;;;;;13.15;11.15;;;;;;;;;;5022105;28;20882;-62
2023/09/12 08:37:02;;;;;;;11.63;8.98;;;;;;;;;;5020711;28;20404;-63
2023/09/12 08:39:41;;;;;;;9.95;8.57;;;;;;;;;;5021997;28;20411;-63
2023/09/12 08:42:09;;;;;;;11.27;8.48;;;;;;;;;;5024146;28;20413;-62
2023/09/12 08:44:36;;;;;;;8.73;6.65;;;;;;;;;;5025282;28;20958;-61
2023/09/12 08:47:05;;;;;;;8.18;7.05;;;;;;;;;;5027357;28;20490;-61
2023/09/12 08:49:33;;;;;;;11.82;7.35;;;;;;;;;;5017576;28;20922;-62
2023/09/12 08:52:00;;;;;;;8.48;6.65;;;;;;;;;;5021377;28;20977;-62
2023/09/12 08:54:27;;;;;;;7.90;6.10;;;;;;;;;;5019835;28;20471;-61
2023/09/12 08:56:55;;;;;;;7.28;6.38;;;;;;;;;;5020651;28;20415;-63
2023/09/12 08:59:22;;;;;;;5.72;5.13;;;;;;;;;;5022140;28;20872;-62
2023/09/12 09:01:51;;;;;;;6.22;4.88;;;;;;;;;;5027849;28;20416;-63
2023/09/12 09:04:19;;;;;;;6.03;4.80;;;;;;;;;;5028714;28;20887;-63
2023/09/12 09:06:47;;;;;;;5.80;4.93;;;;;;;;;;5026058;28;20426;-62
2023/09/12 09:09:15;;;;;;;5.90;4.28;;;;;;;;;;5022844;28;20914;-61
2023/09/12 09:11:42;;;;;;;6.43;4.10;;;;;;;;;;5018438;28;20940;-62
2023/09/12 09:14:10;;;;;;;4.90;4.40;;;;;;;;;;5012466;28;20439;-62
2023/09/12 09:16:37;;;;;;;7.72;4.32;;;;;;;;;;5019983;28;21178;-61
2023/09/12 09:19:09;;;;;;;5.80;4.90;;;;;;;;;;5026786;28;20419;-61
2023/09/12 09:21:37;;;;;;;6.80;5.75;;;;;;;;;;5021844;28;20415;-61
2023/09/12 09:24:06;;;;;;;7.32;5.40;;;;;;;;;;5027559;28;20431;-61
2023/09/12 09:26:46;;;;;;;7.43;6.30;;;;;;;;;;5018737;28;21026;-62
2023/09/12 09:29:15;;;;;;;9.30;7.45;;;;;;;;;;5027100;28;20411;-63
2023/09/12 09:31:43;;;;;;;11.70;9.07;;;;;;;;;;5026658;28;20451;-61
2023/09/12 09:34:14;;;;;;;12.57;9.85;;;;;;;;;;5029808;28;20893;-61
2023/09/12 09:36:44;;;;;;;9.98;8.90;;;;;;;;;;5029287;28;20411;-61
2023/09/12 09:39:12;;;;;;;10.13;9.13;;;;;;;;;;5029172;28;20497;-60
2023/09/12 09:41:39;;;;;;;11.60;9.45;;;;;;;;;;5014898;28;20907;-63
2023/09/12 09:44:07;;;;;;;9.32;8.38;;;;;;;;;;5010416;28;20885;-63
2023/09/12 09:46:36;;;;;;;10.40;9.10;;;;;;;;;;5015167;28;20772;-64
2023/09/12 09:49:03;;;;;;;10.98;9.38;;;;;;;;;;5016218;28;20418;-62
2023/09/12 09:51:32;;;;;;;9.23;8.13;;;;;;;;;;5018658;28;20494;-63
2023/09/12 09:54:00;;;;;;;9.73;7.78;;;;;;;;;;5011095;28;20953;-61
2023/09/12 09:56:27;;;;;;;8.23;6.90;;;;;;;;;;5015837;28;20830;-62
2023/09/12 09:58:55;;;;;;;9.43;7.57;;;;;;;;;;5012795;28;20427;-62
2023/09/12 10:01:23;;;;;;;9.50;8.50;;;;;;;;;;5012027;28;20423;-62
2023/09/12 10:03:52;;;;;;;32.42;24.35;;;;;;;;;;5013795;28;20420;-62
2023/09/12 10:06:19;;;;;;;88.78;65.60;;;;;;;;;;5014681;28;20866;-64
2023/09/12 10:08:49;;;;;;;70.47;50.93;;;;;;;;;;5008232;28;20503;-64
2023/09/12 10:11:17;;;;;;;100.70;72.70;;;;;;;;;;5015721;28;20431;-65
2023/09/12 10:13:48;;;;;;;9.38;7.75;;;;;;;;;;5016007;28;20463;-64
2023/09/12 10:16:17;;;;;;;70.97;49.13;;;;;;;;;;5017460;28;20444;-64
2023/09/12 10:18:47;;;;;;;47.25;35.80;;;;;;;;;;5021395;28;20469;-63
2023/09/12 10:21:21;;;;;;;17.67;14.67;;;;;;;;;;5017287;28;20416;-64
2023/09/12 10:23:50;;;;;;;8.05;6.80;;;;;;;;;;5019030;28;20493;-63
2023/09/12 10:26:18;;;;;;;10.77;9.07;;;;;;;;;;5015855;28;20451;-62
2023/09/12 10:28:45;;;;;;;10.50;8.82;;;;;;;;;;5018645;28;20433;-64
2023/09/12 10:31:13;;;;;;;10.18;8.68;;;;;;;;;;5025927;28;20787;-63
2023/09/12 10:33:40;;;;;;;8.57;7.68;;;;;;;;;;5026357;28;20471;-63
2023/09/12 10:36:08;;;;;;;11.93;7.70;;;;;;;;;;5029908;28;20413;-63
2023/09/12 10:38:39;;;;;;;10.50;8.52;;;;;;;;;;5024634;28;20449;-63
2023/09/12 10:41:09;;;;;;;10.30;8.30;;;;;;;;;;5024166;28;20416;-63
2023/09/12 10:43:36;;;;;;;11.23;9.90;;;;;;;;;;5014307;28;20433;-63
2023/09/12 10:46:04;;;;;;;10.90;8.80;;;;;;;;;;5026600;28;20420;-62
2023/09/12 10:48:31;;;;;;;12.15;9.45;;;;;;;;;;5028646;28;20518;-62
2023/09/12 10:50:59;;;;;;;11.32;9.07;;;;;;;;;;5028051;28;20419;-62
2023/09/12 10:53:28;;;;;;;11.05;9.60;;;;;;;;;;5026991;28;20415;-62
2023/09/12 10:56:15;;;;;;;11.80;10.47;;;;;;;;;;5019933;28;20758;-63
2023/09/12 10:58:57;;;;;;;11.75;9.52;;;;;;;;;;5018973;28;20489;-64
2023/09/12 11:01:25;;;;;;;11.98;9.82;;;;;;;;;;5024183;28;20758;-62
2023/09/12 11:03:52;;;;;;;12.40;10.05;;;;;;;;;;5024270;28;20438;-61
2023/09/12 11:06:23;;;;;;;10.23;9.13;;;;;;;;;;5028645;28;20442;-63
2023/09/12 11:09:05;;;;;;;10.43;8.77;;;;;;;;;;5025020;28;20498;-63
2023/09/12 11:11:33;;;;;;;11.65;8.98;;;;;;;;;;5011417;28;20431;-64
2023/09/12 11:14:04;;;;;;;9.63;7.65;;;;;;;;;;5022563;28;21116;-65
2023/09/12 11:16:31;;;;;;;8.55;6.88;;;;;;;;;;5026681;28;20784;-61
2023/09/12 11:19:14;;;;;;;8.10;7.20;;;;;;;;;;5018083;28;20426;-61
2023/09/12 11:21:41;;;;;;;11.63;7.47;;;;;;;;;;5017779;28;20499;-60
2023/09/12 11:24:08;;;;;;;8.40;7.10;;;;;;;;;;5022708;28;20440;-62
2023/09/12 11:26:37;;;;;;;6.82;6.13;;;;;;;;;;5020425;28;20426;-61
2023/09/12 11:29:13;;;;;;;6.82;6.10;;;;;;;;;;5029694;28;20488;-61
2023/09/12 11:31:42;;;;;;;9.20;7.13;;;;;;;;;;5016263;28;20422;-60
2023/09/12 11:34:10;;;;;;;8.18;6.60;;;;;;;;;;5015120;28;20412;-61
2023/09/12 11:36:39;;;;;;;5.78;5.20;;;;;;;;;;5017457;28;20443;-60
2023/09/12 11:39:23;;;;;;;7.73;5.57;;;;;;;;;;5028335;28;20457;-58
2023/09/12 11:41:52;;;;;;;8.97;5.57;;;;;;;;;;5021539;28;20960;-59
2023/09/12 11:44:20;;;;;;;7.70;6.40;;;;;;;;;;5024798;28;20813;-59
2023/09/12 11:46:49;;;;;;;8.07;6.75;;;;;;;;;;5026673;28;20489;-61
2023/09/12 11:49:16;;;;;;;7.45;6.35;;;;;;;;;;5027203;28;20425;-60
2023/09/12 11:51:50;;;;;;;8.55;6.18;;;;;;;;;;5021891;28;20462;-61
2023/09/12 11:54:17;;;;;;;7.32;6.10;;;;;;;;;;5026294;28;20418;-59
2023/09/12 11:56:45;;;;;;;7.65;6.07;;;;;;;;;;5020217;28;20413;-59
2023/09/12 11:59:13;;;;;;;7.88;6.38;;;;;;;;;;5022713;28;20715;-60
2023/09/12 12:01:40;;;;;;;7.53;6.63;;;;;;;;;;5025729;28;20481;-60
2023/09/12 12:04:07;;;;;;;7.05;5.88;;;;;;;;;;5029106;28;20410;-60
2023/09/12 12:06:35;;;;;;;8.20;6.43;;;;;;;;;;5029242;28;20431;-60
2023/09/12 12:09:04;;;;;;;8.35;6.03;;;;;;;;;;5024422;28;20417;-60
2023/09/12 12:11:31;;;;;;;6.95;5.57;;;;;;;;;;5016510;28;20932;-60
2023/09/12 12:13:58;;;;;;;8.70;5.63;;;;;;;;;;5024724;28;20417;-61
2023/09/12 12:16:28;;;;;;;8.13;6.10;;;;;;;;;;5025658;28;20993;-61
2023/09/12 12:18:57;;;;;;;7.93;6.50;;;;;;;;;;5027044;28;20419;-61
2023/09/12 12:21:24;;;;;;;9.27;6.20;;;;;;;;;;5020420;28;20429;-61
2023/09/12 12:23:59;;;;;;;7.95;6.82;;;;;;;;;;5022894;28;20458;-62
2023/09/12 12:26:26;;;;;;;7.25;6.53;;;;;;;;;;5015330;28;20440;-60
2023/09/12 12:28:53;;;;;;;8.88;7.00;;;;;;;;;;5019940;28;20446;-61
2023/09/12 12:31:21;;;;;;;8.43;7.53;;;;;;;;;;5028299;28;20458;-62
2023/09/12 12:33:54;;;;;;;9.00;7.50;;;;;;;;;;5024077;28;20419;-62
2023/09/12 12:36:21;;;;;;;7.72;6.53;;;;;;;;;;5021038;28;20418;-61
2023/09/12 12:38:49;;;;;;;7.50;6.40;;;;;;;;;;5014905;28;20916;-62
2023/09/12 12:41:17;;;;;;;6.75;6.05;;;;;;;;;;5030209;28;20437;-62
2023/09/12 12:43:44;;;;;;;7.15;6.38;;;;;;;;;;5030303;28;20411;-62
2023/09/12 12:46:13;;;;;;;7.20;6.10;;;;;;;;;;5025597;28;20472;-64
2023/09/12 12:48:43;;;;;;;7.93;7.13;;;;;;;;;;5017001;28;20463;-64
2023/09/12 12:51:18;;;;;;;8.98;7.00;;;;;;;;;;5025243;28;20416;-66
2023/09/12 12:53:47;;;;;;;7.40;6.70;;;;;;;;;;5025825;28;20901;-66
2023/09/12 12:56:18;;;;;;;8.05;7.25;;;;;;;;;;5014310;28;20502;-66
2023/09/12 12:58:49;;;;;;;8.27;7.13;;;;;;;;;;5021032;28;20411;-66
2023/09/12 13:01:16;;;;;;;9.07;7.10;;;;;;;;;;5026520;28;20544;-66
2023/09/12 13:03:43;;;;;;;7.88;7.03;;;;;;;;;;5021673;28;20789;-66
2023/09/12 13:06:13;;;;;;;8.70;6.70;;;;;;;;;;5028078;28;20416;-67
2023/09/12 13:08:43;;;;;;;8.75;5.88;;;;;;;;;;5022036;28;20437;-66
2023/09/12 13:11:10;;;;;;;9.13;6.55;;;;;;;;;;5026508;28;20452;-66
2023/09/12 13:13:37;;;;;;;8.82;6.78;;;;;;;;;;5015980;28;20427;-67
2023/09/12 13:16:05;;;;;;;8.27;5.88;;;;;;;;;;5019663;28;20416;-68
2023/09/12 13:18:32;;;;;;;7.88;5.97;;;;;;;;;;5030321;28;20415;-68
2023/09/12 13:20:59;;;;;;;6.97;6.25;;;;;;;;;;5025007;28;20461;-68
2023/09/12 13:23:26;;;;;;;7.80;7.00;;;;;;;;;;5021844;28;20415;-67
2023/09/12 13:25:55;;;;;;;8.18;7.43;;;;;;;;;;5018273;28;20411;-67
2023/09/12 13:28:23;;;;;;;8.30;6.90;;;;;;;;;;5020726;28;20427;-67
2023/09/12 13:30:50;;;;;;;8.38;7.03;;;;;;;;;;5024104;28;20445;-68
2023/09/12 13:33:17;;;;;;;10.15;6.90;;;;;;;;;;5031916;28;20772;-68
2023/09/12 13:35:44;;;;;;;8.27;6.70;;;;;;;;;;5031745;28;20469;-69
2023/09/12 13:38:12;;;;;;;7.68;6.90;;;;;;;;;;5028659;28;20403;-68
2023/09/12 13:40:39;;;;;;;8.27;6.63;;;;;;;;;;5029833;28;20438;-68
2023/09/12 13:43:07;;;;;;;11.43;8.68;;;;;;;;;;5030730;28;20419;-68
2023/09/12 13:45:35;;;;;;;9.37;7.47;;;;;;;;;;5033692;28;20478;-68
2023/09/12 13:48:03;;;;;;;8.27;6.85;;;;;;;;;;5026245;28;20426;-68
2023/09/12 13:50:30;;;;;;;8.38;7.20;;;;;;;;;;5033759;28;20415;-68
2023/09/12 13:52:59;;;;;;;8.60;7.28;;;;;;;;;;5024363;28;20449;-67
2023/09/12 13:55:26;;;;;;;8.83;7.30;;;;;;;;;;5020356;28;20443;-68
2023/09/12 13:57:55;;;;;;;8.98;7.57;;;;;;;;;;5020741;28;21231;-68
2023/09/12 14:00:23;;;;;;;11.55;7.60;;;;;;;;;;5020099;28;20425;-66
2023/09/12 14:02:50;;;;;;;8.38;7.57;;;;;;;;;;5006672;28;20423;-68
2023/09/12 14:05:17;;;;;;;9.47;8.47;;;;;;;;;;5013861;28;20427;-65
2023/09/12 14:07:44;;;;;;;8.15;7.35;;;;;;;;;;5010412;28;20528;-66
2023/09/12 14:10:11;;;;;;;8.20;7.15;;;;;;;;;;5021484;28;20494;-64
2023/09/12 14:12:38;;;;;;;10.15;7.75;;;;;;;;;;5018492;28;20421;-65
2023/09/12 14:15:06;;;;;;;11.10;8.00;;;;;;;;;;5019378;28;20423;-64
2023/09/12 14:17:35;;;;;;;9.77;7.50;;;;;;;;;;5018257;28;20412;-64
2023/09/12 14:20:02;;;;;;;8.60;7.30;;;;;;;;;;5020145;28;20425;-66
2023/09/12 14:22:29;;;;;;;9.63;8.20;;;;;;;;;;5013038;28;20850;-65
2023/09/12 14:24:56;;;;;;;10.83;9.00;;;;;;;;;;5020414;28;20415;-64
2023/09/12 14:27:23;;;;;;;10.25;8.50;;;;;;;;;;5017610;28;21032;-64
2023/09/12 14:29:50;;;;;;;8.65;7.72;;;;;;;;;;5018692;28;20416;-65
2023/09/12 14:32:17;;;;;;;9.48;7.35;;;;;;;;;;5019534;28;20417;-64